Time;durP1;ratioP1;P1;durP2;ratioP2;P2;SDS_P1;SDS_P2;PMS_P1;PMS_P2;Temp;Humidity;BMP_temperature;BMP_pressure;BME280_temperature;BME280_humidity;BME280_pressure;Samples;Min_cycle;Max_cycle;Signal;HPM_P1;HPM_P2
2021/03/11 00:00:35;;;;;;;36.85;20.23;;;;;;;2.01;67.65;100449.78;4971308;28;20058;-52
2021/03/11 00:03:06;;;;;;;35.47;19.42;;;;;;;2.26;67.18;100452.00;4971053;28;20072;-51
2021/03/11 00:05:34;;;;;;;35.95;21.00;;;;;;;2.25;67.55;100445.22;4966441;28;20525;-53
2021/03/11 00:08:02;;;;;;;35.95;20.13;;;;;;;2.12;68.22;100448.72;4972081;28;20793;-47
2021/03/11 00:10:28;;;;;;;36.88;21.20;;;;;;;2.23;67.96;100452.72;4965944;28;20046;-46
2021/03/11 00:12:54;;;;;;;38.40;21.73;;;;;;;2.26;68.35;100450.34;4971366;28;20235;-50
2021/03/11 00:15:22;;;;;;;38.95;20.35;;;;;;;2.18;68.69;100430.53;4971069;28;20388;-49
2021/03/11 00:17:50;;;;;;;39.25;21.55;;;;;;;2.15;69.32;100430.34;4970617;28;20055;-52
2021/03/11 00:20:20;;;;;;;41.78;22.95;;;;;;;2.20;69.68;100424.75;4971318;28;21479;-51
2021/03/11 00:22:48;;;;;;;39.88;22.95;;;;;;;2.20;69.70;100429.81;4970516;28;20054;-51
2021/03/11 00:25:17;;;;;;;40.58;21.52;;;;;;;2.28;69.50;100410.91;4968398;28;20137;-49
2021/03/11 00:27:44;;;;;;;43.60;22.48;;;;;;;2.22;69.61;100410.56;4969979;28;20061;-50
2021/03/11 00:30:12;;;;;;;44.28;23.90;;;;;;;2.10;70.49;100406.50;4971649;28;20046;-51
2021/03/11 00:32:39;;;;;;;41.58;22.50;;;;;;;2.30;70.03;100393.28;4969702;28;20077;-50
2021/03/11 00:35:08;;;;;;;48.95;25.15;;;;;;;2.24;70.32;100383.72;4971783;28;20078;-48
2021/03/11 00:37:35;;;;;;;40.50;22.38;;;;;;;2.30;70.60;100380.66;4969799;28;20047;-49
2021/03/11 00:40:08;;;;;;;42.30;22.92;;;;;;;2.43;70.66;100375.47;4970606;28;20519;-48
2021/03/11 00:42:34;;;;;;;42.17;22.33;;;;;;;2.15;71.66;100370.59;4965980;28;20382;-49
2021/03/11 00:45:02;;;;;;;47.90;24.30;;;;;;;2.39;70.98;100362.59;4971248;28;20050;-51
2021/03/11 00:47:28;;;;;;;39.40;22.65;;;;;;;2.40;70.91;100356.75;4965238;28;20118;-47
2021/03/11 00:49:56;;;;;;;45.63;24.58;;;;;;;2.33;71.37;100360.63;4971290;28;20046;-50
2021/03/11 00:52:22;;;;;;;43.97;23.08;;;;;;;2.39;71.77;100349.97;4970059;28;20050;-52
2021/03/11 00:54:48;;;;;;;47.70;25.20;;;;;;;2.49;71.31;100342.06;4969909;28;20046;-53
2021/03/11 00:57:15;;;;;;;45.03;24.90;;;;;;;2.37;72.09;100332.19;4971030;28;20149;-49
2021/03/11 00:59:41;;;;;;;46.35;25.38;;;;;;;2.39;72.50;100329.75;4969378;28;20561;-47
2021/03/11 01:02:08;;;;;;;47.75;26.13;;;;;;;2.43;72.04;100314.81;4970919;28;20050;-49
2021/03/11 01:04:35;;;;;;;49.05;24.58;;;;;;;2.22;73.33;100301.97;4969542;28;20054;-51
2021/03/11 01:07:02;;;;;;;47.35;26.05;;;;;;;2.35;73.18;100311.03;4969540;28;20059;-51
2021/03/11 01:09:28;;;;;;;48.25;25.80;;;;;;;2.29;73.03;100291.38;4964265;28;20047;-51
2021/03/11 01:11:55;;;;;;;49.70;25.70;;;;;;;2.46;73.00;100273.69;4970606;28;20610;-50
2021/03/11 01:14:21;;;;;;;50.03;25.13;;;;;;;2.46;73.18;100256.88;4969556;28;20057;-50
2021/03/11 01:16:50;;;;;;;50.92;26.33;;;;;;;2.44;73.49;100255.03;4968683;28;20094;-52
2021/03/11 01:19:16;;;;;;;50.90;25.83;;;;;;;2.44;73.47;100250.84;4970241;28;20112;-47
2021/03/11 01:21:43;;;;;;;49.88;26.60;;;;;;;2.31;74.17;100238.38;4969344;28;20375;-49
2021/03/11 01:24:15;;;;;;;50.92;26.52;;;;;;;2.45;73.82;100241.63;4967326;28;20054;-50
2021/03/11 01:26:42;;;;;;;45.97;25.45;;;;;;;2.47;74.27;100242.56;4968627;28;20089;-51
2021/03/11 01:29:08;;;;;;;48.88;25.55;;;;;;;2.47;74.48;100240.06;4970606;28;20056;-49
2021/03/11 01:31:35;;;;;;;54.40;27.23;;;;;;;2.25;75.04;100238.94;4969032;28;20050;-51
2021/03/11 01:34:02;;;;;;;53.08;26.77;;;;;;;2.51;74.63;100239.41;4968953;28;20058;-50
2021/03/11 01:36:28;;;;;;;48.97;26.75;;;;;;;2.42;75.29;100224.66;4964223;28;20825;-47
2021/03/11 01:38:55;;;;;;;52.08;27.13;;;;;;;2.57;74.52;100221.16;4969795;28;20046;-52
2021/03/11 01:41:21;;;;;;;49.33;26.10;;;;;;;2.60;74.36;100219.66;4969320;28;20373;-52
2021/03/11 01:43:55;;;;;;;49.33;27.05;;;;;;;2.58;74.31;100206.06;4968861;28;20134;-53
2021/03/11 01:46:24;;;;;;;50.78;27.95;;;;;;;2.59;74.71;100201.88;4969193;28;20046;-52
2021/03/11 01:48:52;;;;;;;50.78;28.10;;;;;;;2.63;74.75;100198.72;4969240;28;20058;-49
2021/03/11 01:51:21;;;;;;;55.47;28.45;;;;;;;2.85;74.07;100191.38;4969476;28;20091;-50
2021/03/11 01:53:49;;;;;;;47.03;26.92;;;;;;;2.77;74.16;100183.44;4968229;28;20055;-51
2021/03/11 01:56:16;;;;;;;52.33;27.30;;;;;;;2.68;75.15;100183.00;4969904;28;20077;-51
2021/03/11 01:58:42;;;;;;;51.55;27.45;;;;;;;2.91;74.08;100170.56;4968447;28;20051;-50
2021/03/11 02:01:09;;;;;;;53.15;26.45;;;;;;;2.83;74.10;100172.75;4969904;28;20053;-50
2021/03/11 02:03:36;;;;;;;47.83;26.65;;;;;;;2.66;75.13;100163.47;4967960;28;20089;-53
2021/03/11 02:06:04;;;;;;;51.28;27.10;;;;;;;2.73;74.66;100163.88;4968746;28;20059;-48
2021/03/11 02:08:31;;;;;;;52.08;28.10;;;;;;;2.73;74.95;100146.19;4968266;28;20081;-50
2021/03/11 02:10:59;;;;;;;53.35;27.60;;;;;;;2.83;74.64;100134.84;4969353;28;20047;-46
2021/03/11 02:13:46;;;;;;;52.90;27.73;;;;;;;2.86;74.42;100131.56;4968671;28;20074;-53
2021/03/11 02:16:34;;;;;;;53.22;27.98;;;;;;;2.85;75.09;100133.22;4961322;28;20425;-49
2021/03/11 02:19:22;;;;;;;50.38;27.65;;;;;;;2.90;74.67;100130.91;4969654;28;20149;-52
2021/03/11 02:22:07;;;;;;;51.10;26.33;;;;;;;2.89;74.54;100122.47;4965559;28;20137;-48
2021/03/11 02:25:09;;;;;;;50.58;25.92;;;;;;;2.78;75.24;100111.00;4964291;28;20042;-52
2021/03/11 02:28:27;;;;;;;47.38;26.40;;;;;;;2.86;75.25;100112.19;4964528;28;20038;-49
2021/03/11 02:30:58;;;;;;;54.40;27.83;;;;;;;2.77;75.89;100096.59;4941343;28;20042;-49
2021/03/11 02:33:28;;;;;;;53.03;28.42;;;;;;;2.84;75.12;100097.78;4968081;28;20050;-48
2021/03/11 02:35:57;;;;;;;49.97;27.75;;;;;;;2.95;75.05;100092.41;4968633;28;20047;-47
2021/03/11 02:38:26;;;;;;;55.58;27.88;;;;;;;3.06;74.56;100091.25;4961824;28;20042;-49
2021/03/11 02:40:58;;;;;;;52.38;27.70;;;;;;;3.06;74.56;100078.59;4968417;28;20047;-54
2021/03/11 02:43:25;;;;;;;52.40;28.75;;;;;;;2.83;75.94;100075.81;4968147;28;20046;-51
2021/03/11 02:45:53;;;;;;;47.50;25.52;;;;;;;3.10;74.39;100064.44;4967972;28;20605;-53
2021/03/11 02:48:20;;;;;;;53.42;28.75;;;;;;;3.13;74.53;100062.03;4968362;28;20049;-48
2021/03/11 02:50:48;;;;;;;53.47;27.42;;;;;;;3.24;73.96;100062.53;4967394;28;20062;-52
2021/03/11 02:53:16;;;;;;;51.58;27.55;;;;;;;3.37;73.66;100061.41;4968721;28;20369;-50
2021/03/11 02:55:43;;;;;;;52.35;28.73;;;;;;;3.35;73.90;100060.47;4967165;28;20047;-50
2021/03/11 02:58:12;;;;;;;49.15;27.48;;;;;;;3.26;74.03;100058.41;4969379;28;20504;-51
2021/03/11 03:00:40;;;;;;;47.45;27.92;;;;;;;3.14;74.86;100051.13;4967381;28;20054;-48
2021/03/11 03:03:12;;;;;;;47.47;27.85;;;;;;;3.16;74.77;100038.56;4968887;28;20050;-52
2021/03/11 03:05:40;;;;;;;50.53;27.95;;;;;;;3.40;74.24;100043.81;4967156;28;20488;-52
2021/03/11 03:08:08;;;;;;;52.15;27.80;;;;;;;3.46;73.60;100042.41;4969377;28;20055;-54
2021/03/11 03:10:37;;;;;;;51.63;28.30;;;;;;;3.41;74.18;100045.56;4967206;28;20554;-51
2021/03/11 03:13:13;;;;;;;49.85;27.73;;;;;;;3.41;75.10;100043.00;4967906;28;20061;-52
2021/03/11 03:15:41;;;;;;;48.78;26.27;;;;;;;3.55;74.46;100039.41;4967043;28;20131;-50
2021/03/11 03:18:11;;;;;;;50.30;27.27;;;;;;;3.49;75.53;100026.50;4969382;28;20600;-53
2021/03/11 03:20:38;;;;;;;52.38;28.55;;;;;;;3.25;76.80;100016.19;4967159;28;20062;-48
2021/03/11 03:23:06;;;;;;;54.30;29.25;;;;;;;3.38;76.78;100013.41;4969128;28;20057;-48
2021/03/11 03:25:49;;;;;;;50.78;27.70;;;;;;;3.42;76.76;100009.31;4967164;28;20063;-51
2021/03/11 03:28:16;;;;;;;52.17;28.85;;;;;;;3.25;77.96;100001.00;4968603;28;20054;-50
2021/03/11 03:30:44;;;;;;;53.58;27.70;;;;;;;3.32;78.06;99996.25;4967192;28;20042;-50
2021/03/11 03:33:11;;;;;;;53.42;28.38;;;;;;;3.32;77.55;99986.16;4971499;28;20137;-52
2021/03/11 03:35:39;;;;;;;51.83;28.48;;;;;;;3.45;77.48;99984.16;4970776;28;20366;-53
2021/03/11 03:38:07;;;;;;;50.03;28.13;;;;;;;3.61;76.99;99980.63;4972687;28;20062;-54
2021/03/11 03:40:35;;;;;;;51.03;27.20;;;;;;;3.57;77.50;99983.00;4970659;28;20146;-53
2021/03/11 03:43:15;;;;;;;53.53;28.80;;;;;;;3.53;77.70;99968.50;4972048;28;20054;-53
2021/03/11 03:45:51;;;;;;;55.97;29.13;;;;;;;3.56;78.39;99961.03;4967953;28;20067;-52
2021/03/11 03:48:22;;;;;;;54.17;28.35;;;;;;;3.49;78.95;99960.72;4966328;28;20062;-52
2021/03/11 03:50:49;;;;;;;51.92;29.52;;;;;;;3.55;79.05;99964.34;4970612;28;20057;-49
2021/03/11 03:53:22;;;;;;;50.55;27.83;;;;;;;3.71;78.02;99955.75;4972327;28;20068;-49
2021/03/11 03:56:09;;;;;;;54.85;29.38;;;;;;;3.52;79.90;99944.00;4971230;28;20303;-49
2021/03/11 03:58:37;;;;;;;54.75;28.90;;;;;;;3.60;79.83;99933.31;4970616;28;20047;-47
2021/03/11 04:01:04;;;;;;;53.50;28.33;;;;;;;3.46;81.62;99928.53;4971424;28;20058;-48
2021/03/11 04:03:32;;;;;;;52.95;28.77;;;;;;;3.41;82.77;99927.47;4970508;28;20055;-50
2021/03/11 04:06:00;;;;;;;56.47;27.85;;;;;;;3.38;83.35;99921.44;4971781;28;20054;-47
2021/03/11 04:08:28;;;;;;;48.75;27.63;;;;;;;3.45;83.15;99914.16;4971339;28;20050;-49
2021/03/11 04:10:56;;;;;;;58.60;31.05;;;;;;;3.26;85.79;99906.59;4971520;28;20046;-47
2021/03/11 04:13:23;;;;;;;58.15;30.70;;;;;;;3.54;84.69;99895.94;4970508;28;20046;-49
2021/03/11 04:15:50;;;;;;;56.50;29.27;;;;;;;3.38;85.74;99891.09;4970649;28;20047;-50
2021/03/11 04:18:17;;;;;;;55.90;30.20;;;;;;;3.32;87.00;99877.34;4971877;28;20050;-49
2021/03/11 04:20:46;;;;;;;57.92;30.13;;;;;;;3.25;87.63;99872.00;4970266;28;20193;-48
2021/03/11 04:23:13;;;;;;;58.05;30.70;;;;;;;3.19;88.91;99856.53;4967780;28;20515;-50
2021/03/11 04:25:41;;;;;;;56.92;31.33;;;;;;;3.22;89.33;99852.47;4970131;28;20087;-48
2021/03/11 04:28:07;;;;;;;58.13;28.65;;;;;;;3.30;89.31;99852.81;4971972;28;20054;-46
2021/03/11 04:30:34;;;;;;;57.95;29.33;;;;;;;3.12;90.83;99849.50;4970479;28;20050;-50
2021/03/11 04:33:01;;;;;;;62.60;31.73;;;;;;;3.37;89.76;99842.13;4972572;28;20058;-52
2021/03/11 04:35:28;;;;;;;57.53;30.45;;;;;;;3.46;89.50;99829.84;4971411;28;20055;-52
2021/03/11 04:37:54;;;;;;;60.67;29.98;;;;;;;3.40;89.66;99824.53;4971981;28;20047;-46
2021/03/11 04:40:22;;;;;;;58.72;30.83;;;;;;;3.38;90.49;99817.69;4971896;28;20451;-51
2021/03/11 04:42:49;;;;;;;64.80;31.88;;;;;;;3.39;90.70;99809.31;4970900;28;20080;-51
2021/03/11 04:45:15;;;;;;;61.17;31.95;;;;;;;3.23;92.04;99802.75;4971123;28;20042;-47
2021/03/11 04:47:42;;;;;;;61.60;32.35;;;;;;;3.13;92.96;99795.59;4970710;28;20050;-48
2021/03/11 04:50:09;;;;;;;64.30;32.75;;;;;;;3.03;94.08;99790.16;4972452;28;20056;-51
2021/03/11 04:52:37;;;;;;;62.80;32.58;;;;;;;3.05;94.86;99790.22;4970646;28;20512;-52
2021/03/11 04:55:05;;;;;;;62.15;30.98;;;;;;;3.32;93.46;99775.28;4969592;28;20523;-49
2021/03/11 04:57:41;;;;;;;67.03;33.25;;;;;;;3.01;95.72;99763.97;4969842;28;20051;-47
2021/03/11 05:00:15;;;;;;;68.85;33.55;;;;;;;2.68;97.33;99760.91;4972562;28;20070;-50
2021/03/11 05:02:45;;;;;;;66.95;33.28;;;;;;;3.04;96.90;99736.25;4970161;28;20057;-51
2021/03/11 05:05:19;;;;;;;68.15;33.08;;;;;;;3.00;95.77;99733.53;4969912;28;20046;-50
2021/03/11 05:07:46;;;;;;;65.90;32.47;;;;;;;3.07;96.54;99720.34;4970532;28;20048;-49
2021/03/11 05:10:12;;;;;;;67.88;33.15;;;;;;;2.94;96.82;99720.66;4963561;28;20500;-50
2021/03/11 05:12:39;;;;;;;67.30;33.85;;;;;;;3.07;96.46;99725.41;4970387;28;20053;-48
2021/03/11 05:15:06;;;;;;;66.25;33.22;;;;;;;3.10;95.84;99717.94;4970880;28;20054;-52
2021/03/11 05:17:32;;;;;;;63.83;33.75;;;;;;;2.92;95.77;99712.16;4967677;28;20074;-50
2021/03/11 05:19:59;;;;;;;71.90;33.97;;;;;;;2.73;97.03;99696.25;4970028;28;20093;-50
2021/03/11 05:22:26;;;;;;;65.72;31.70;;;;;;;3.10;96.69;99691.75;4971333;28;20047;-44
2021/03/11 05:24:53;;;;;;;62.13;30.10;;;;;;;3.46;94.67;99683.06;4969730;28;20060;-44
2021/03/11 05:27:20;;;;;;;63.30;32.45;;;;;;;3.33;95.49;99678.38;4966500;28;20129;-44
2021/03/11 05:29:47;;;;;;;58.58;30.85;;;;;;;3.20;95.49;99666.06;4968262;28;20051;-47
2021/03/11 05:32:14;;;;;;;67.57;31.73;;;;;;;3.24;96.13;99646.00;4967722;28;20058;-46
2021/03/11 05:34:40;;;;;;;60.67;31.17;;;;;;;3.43;95.01;99649.22;4967308;28;20046;-47
2021/03/11 05:37:07;;;;;;;66.53;31.35;;;;;;;3.22;97.54;99646.72;4969883;28;20058;-48
2021/03/11 05:39:34;;;;;;;64.78;31.92;;;;;;;3.02;98.83;99630.78;4968483;28;20424;-46
2021/03/11 05:42:01;;;;;;;62.95;32.13;;;;;;;3.24;98.39;99623.22;4971403;28;20509;-47
2021/03/11 05:44:28;;;;;;;66.90;32.55;;;;;;;3.22;97.56;99627.34;4969818;28;20057;-48
2021/03/11 05:46:56;;;;;;;64.20;31.50;;;;;;;3.27;98.40;99619.94;4970684;28;20073;-45
2021/03/11 05:49:25;;;;;;;60.10;31.30;;;;;;;3.30;97.33;99620.06;4970080;28;20139;-47
2021/03/11 05:51:52;;;;;;;62.30;29.70;;;;;;;3.53;97.09;99618.38;4969938;28;20046;-47
2021/03/11 05:54:23;;;;;;;63.65;32.13;;;;;;;3.56;96.97;99619.34;4970038;28;20461;-44
2021/03/11 05:56:50;;;;;;;60.90;31.27;;;;;;;3.51;97.57;99614.91;4968735;28;20050;-43
2021/03/11 05:59:17;;;;;;;58.97;29.55;;;;;;;3.58;96.87;99625.31;4970116;28;20090;-44
2021/03/11 06:01:44;;;;;;;60.63;30.10;;;;;;;3.55;97.15;99619.28;4967155;28;20062;-48
2021/03/11 06:04:15;;;;;;;62.63;30.75;;;;;;;3.60;97.52;99620.28;4968676;28;20537;-52
2021/03/11 06:06:43;;;;;;;67.05;31.70;;;;;;;3.41;98.12;99598.53;4964349;28;20576;-49
2021/03/11 06:09:10;;;;;;;74.03;31.30;;;;;;;3.32;99.34;99590.59;4969717;28;20048;-44
2021/03/11 06:11:38;;;;;;;65.32;32.45;;;;;;;3.50;99.40;99573.56;4950118;28;20055;-44
2021/03/11 06:14:08;;;;;;;65.47;31.67;;;;;;;3.67;98.73;99570.78;4968114;28;20046;-46
2021/03/11 06:16:39;;;;;;;67.00;33.40;;;;;;;3.52;99.01;99566.91;4966783;28;20046;-44
2021/03/11 06:19:08;;;;;;;63.92;30.88;;;;;;;3.55;100.00;99566.97;4965606;28;20149;-45
2021/03/11 06:21:35;;;;;;;71.35;32.10;;;;;;;3.56;100.00;99557.75;4963473;28;20101;-45
2021/03/11 06:24:02;;;;;;;71.03;33.13;;;;;;;3.61;100.00;99545.25;4970891;28;20179;-45
2021/03/11 06:26:28;;;;;;;71.75;33.45;;;;;;;3.42;100.00;99538.66;4965013;28;20839;-44
2021/03/11 06:28:56;;;;;;;70.15;31.98;;;;;;;3.44;100.00;99532.84;4969996;28;20134;-47
2021/03/11 06:31:33;;;;;;;64.88;31.08;;;;;;;3.51;100.00;99534.81;4964952;28;20054;-44
2021/03/11 06:34:01;;;;;;;67.47;32.13;;;;;;;3.36;100.00;99543.50;4968257;28;20194;-45
2021/03/11 06:36:31;;;;;;;72.50;32.80;;;;;;;3.58;100.00;99543.47;4969119;28;20105;-44
2021/03/11 06:38:58;;;;;;;69.72;33.28;;;;;;;3.57;100.00;99550.19;4970492;28;20049;-45
2021/03/11 06:41:43;;;;;;;72.32;34.03;;;;;;;3.62;100.00;99531.78;4969138;28;20524;-47
2021/03/11 06:44:09;;;;;;;69.47;32.30;;;;;;;3.81;100.00;99522.31;4970598;28;20042;-47
2021/03/11 06:46:36;;;;;;;66.57;32.40;;;;;;;3.55;100.00;99518.91;4969094;28;20516;-44
2021/03/11 06:49:10;;;;;;;73.97;34.17;;;;;;;3.72;100.00;99504.31;4962316;28;20181;-46
2021/03/11 06:51:38;;;;;;;73.53;33.72;;;;;;;3.62;100.00;99502.28;4960034;28;20544;-45
2021/03/11 06:54:05;;;;;;;67.13;33.28;;;;;;;3.88;100.00;99487.06;4962585;28;20419;-47
2021/03/11 06:56:32;;;;;;;72.85;33.78;;;;;;;3.72;100.00;99491.63;4966664;28;20485;-47
2021/03/11 06:59:19;;;;;;;72.32;32.42;;;;;;;3.87;100.00;99486.22;4948238;28;20998;-47
2021/03/11 07:01:52;;;;;;;69.95;31.98;;;;;;;3.80;100.00;99494.44;4969770;28;20088;-46
2021/03/11 07:04:26;;;;;;;73.70;32.72;;;;;;;3.87;100.00;99498.88;4961605;28;20078;-45
2021/03/11 07:06:53;;;;;;;75.05;35.15;;;;;;;3.70;100.00;99479.75;4962342;28;20047;-46
2021/03/11 07:09:20;;;;;;;77.93;34.50;;;;;;;3.86;100.00;99460.84;4968449;28;20086;-47
2021/03/11 07:11:54;;;;;;;83.10;38.55;;;;;;;3.88;100.00;99474.41;4962793;28;20042;-44
2021/03/11 07:14:28;;;;;;;72.30;34.97;;;;;;;3.85;100.00;99461.69;4965590;28;20051;-49
2021/03/11 07:17:19;;;;;;;75.70;35.10;;;;;;;3.88;100.00;99460.09;4963035;28;20131;-45
2021/03/11 07:20:06;;;;;;;77.18;35.45;;;;;;;3.81;100.00;99448.91;4967614;28;20050;-48
2021/03/11 07:22:33;;;;;;;68.80;32.67;;;;;;;3.89;100.00;99450.84;4962339;28;20203;-46
2021/03/11 07:25:00;;;;;;;79.65;35.33;;;;;;;3.73;100.00;99446.94;4968651;28;20489;-46
2021/03/11 07:27:47;;;;;;;73.57;34.53;;;;;;;3.72;100.00;99432.56;4966251;28;20075;-47
2021/03/11 07:30:15;;;;;;;72.40;36.00;;;;;;;3.88;100.00;99436.44;4965612;28;20045;-45
2021/03/11 07:32:42;;;;;;;77.32;36.50;;;;;;;3.90;100.00;99427.22;4963735;28;20533;-49
2021/03/11 07:35:09;;;;;;;68.85;33.85;;;;;;;3.80;100.00;99434.53;4963140;28;20050;-47
2021/03/11 07:37:41;;;;;;;69.03;32.10;;;;;;;3.86;100.00;99416.13;4961942;28;20055;-46
2021/03/11 07:40:10;;;;;;;78.38;35.83;;;;;;;3.78;100.00;99417.56;4965670;28;20575;-49
2021/03/11 07:42:37;;;;;;;79.97;33.65;;;;;;;3.94;100.00;99424.84;4966623;28;20046;-46
2021/03/11 07:45:04;;;;;;;77.95;36.60;;;;;;;3.96;100.00;99415.63;4964277;28;20091;-46
2021/03/11 07:47:35;;;;;;;77.55;35.58;;;;;;;3.91;100.00;99414.63;4966137;28;20527;-49
2021/03/11 07:50:03;;;;;;;74.68;36.38;;;;;;;3.77;100.00;99416.72;4966154;28;20070;-47
2021/03/11 07:52:36;;;;;;;72.68;32.03;;;;;;;4.02;100.00;99407.34;4963052;28;20144;-48
2021/03/11 07:55:09;;;;;;;67.55;28.98;;;;;;;4.05;100.00;99415.91;4967368;28;20061;-48
2021/03/11 07:57:40;;;;;;;70.07;35.10;;;;;;;3.91;100.00;99427.28;4968351;28;20053;-48
2021/03/11 08:00:08;;;;;;;74.07;33.15;;;;;;;4.04;100.00;99421.78;4973047;28;20552;-52
2021/03/11 08:02:52;;;;;;;69.15;32.92;;;;;;;3.93;100.00;99417.19;4970575;28;20074;-48
2021/03/11 08:05:28;;;;;;;79.35;35.55;;;;;;;4.11;100.00;99400.03;4947687;28;20064;-46
2021/03/11 08:08:17;;;;;;;70.53;30.42;;;;;;;3.97;100.00;99396.22;4971466;28;20050;-48
2021/03/11 08:10:51;;;;;;;76.18;34.30;;;;;;;3.93;100.00;99399.44;4970813;28;20413;-45
2021/03/11 08:13:27;;;;;;;71.30;34.15;;;;;;;4.16;100.00;99369.75;4969794;28;20765;-49
2021/03/11 08:15:55;;;;;;;70.78;34.25;;;;;;;4.32;100.00;99382.09;4965963;28;20050;-49
2021/03/11 08:18:49;;;;;;;72.72;34.05;;;;;;;4.25;100.00;99375.09;4966693;28;20059;-44
2021/03/11 08:21:25;;;;;;;68.47;32.20;;;;;;;4.51;100.00;99365.72;4961848;28;20053;-51
2021/03/11 08:23:56;;;;;;;63.78;31.67;;;;;;;4.43;100.00;99355.38;4962728;28;20054;-48
2021/03/11 08:26:41;;;;;;;62.40;30.92;;;;;;;4.44;100.00;99358.78;4968560;28;20058;-46
2021/03/11 08:29:25;;;;;;;62.22;28.98;;;;;;;4.43;100.00;99362.97;4968350;28;20047;-46
2021/03/11 08:31:52;;;;;;;59.65;29.45;;;;;;;4.57;100.00;99354.09;4970645;28;20070;-47
2021/03/11 08:34:33;;;;;;;58.60;29.92;;;;;;;4.46;100.00;99352.94;4953560;28;20069;-45
2021/03/11 08:37:21;;;;;;;64.25;32.28;;;;;;;4.65;100.00;99356.84;4971219;28;20375;-51
2021/03/11 08:39:49;;;;;;;56.92;29.85;;;;;;;4.57;100.00;99356.63;4966627;28;20291;-49
2021/03/11 08:42:49;;;;;;;59.97;30.65;;;;;;;4.77;100.00;99357.19;4971714;28;20050;-45
2021/03/11 08:45:37;;;;;;;60.95;29.67;;;;;;;4.83;100.00;99336.19;4963570;28;20045;-47
2021/03/11 08:48:16;;;;;;;57.85;28.85;;;;;;;4.73;100.00;99352.84;4967758;28;20050;-49
2021/03/11 08:50:46;;;;;;;55.13;29.33;;;;;;;4.64;100.00;99349.19;4967487;28;20402;-47
2021/03/11 08:53:36;;;;;;;63.15;30.98;;;;;;;4.81;100.00;99346.31;4959061;28;20059;-47
2021/03/11 08:56:17;;;;;;;53.15;28.67;;;;;;;4.82;100.00;99342.09;4967863;28;20531;-47
2021/03/11 08:59:10;;;;;;;53.00;28.75;;;;;;;4.80;100.00;99336.09;4969845;28;20074;-49
2021/03/11 09:01:50;;;;;;;59.83;31.08;;;;;;;4.87;100.00;99342.22;4968651;28;20050;-44
2021/03/11 09:04:23;;;;;;;63.95;32.17;;;;;;;4.79;100.00;99332.72;4968955;28;20524;-44
2021/03/11 09:06:59;;;;;;;52.75;28.23;;;;;;;4.66;100.00;99337.41;4964928;28;20047;-46
2021/03/11 09:09:34;;;;;;;57.85;29.05;;;;;;;4.80;100.00;99321.75;4965039;28;20053;-47
2021/03/11 09:12:04;;;;;;;55.78;29.77;;;;;;;4.84;100.00;99318.47;4966465;28;20124;-51
2021/03/11 09:14:30;;;;;;;56.45;29.77;;;;;;;4.82;100.00;99312.53;4962512;28;20097;-49
2021/03/11 09:17:06;;;;;;;62.05;31.35;;;;;;;4.92;100.00;99312.75;4964493;28;20058;-47
2021/03/11 09:19:41;;;;;;;60.67;30.40;;;;;;;4.78;100.00;99294.66;4962888;28;20057;-49
2021/03/11 09:22:36;;;;;;;55.75;28.80;;;;;;;4.73;100.00;99299.59;4961421;28;20560;-47
2021/03/11 09:25:09;;;;;;;61.42;30.40;;;;;;;5.03;100.00;99303.72;4961523;28;20043;-48
2021/03/11 09:27:39;;;;;;;57.53;29.73;;;;;;;4.89;100.00;99294.91;4963578;28;20408;-49
2021/03/11 09:30:26;;;;;;;;;;;;;;;4.93;100.00;99294.19;4965586;28;20118;-47
2021/03/11 09:32:53;;;;;;;57.00;27.92;;;;;;;5.22;100.00;99297.44;4966484;28;19926;-51
2021/03/11 09:35:24;;;;;;;54.47;29.60;;;;;;;5.14;100.00;99293.88;4965600;28;20078;-47
2021/03/11 09:37:58;;;;;;;49.25;26.00;;;;;;;5.10;100.00;99298.00;4965788;28;20141;-47
2021/03/11 09:40:36;;;;;;;58.65;29.77;;;;;;;5.12;100.00;99298.91;4965898;28;20051;-45
2021/03/11 09:43:11;;;;;;;54.13;28.40;;;;;;;5.22;100.00;99293.25;4965767;28;20054;-47
2021/03/11 09:46:06;;;;;;;53.55;27.65;;;;;;;5.30;100.00;99293.41;4964181;28;20047;-49
2021/03/11 09:48:37;;;;;;;54.17;27.07;;;;;;;5.32;100.00;99302.78;4963901;28;20205;-51
2021/03/11 09:51:12;;;;;;;54.53;27.65;;;;;;;5.19;100.00;99297.38;4964245;28;20424;-49
2021/03/11 09:53:50;;;;;;;55.63;28.98;;;;;;;5.30;100.00;99288.34;4963616;28;20042;-47
2021/03/11 09:56:29;;;;;;;49.00;26.13;;;;;;;5.16;100.00;99272.78;4963396;28;20061;-48
2021/03/11 09:59:05;;;;;;;54.22;27.40;;;;;;;5.37;100.00;99275.00;4965574;28;20135;-50
2021/03/11 10:01:35;;;;;;;52.55;27.58;;;;;;;5.32;100.00;99262.19;4964781;28;20133;-47
2021/03/11 10:04:12;;;;;;;55.28;28.17;;;;;;;5.40;100.00;99259.81;4964149;28;20062;-45
2021/03/11 10:06:59;;;;;;;54.67;28.25;;;;;;;5.41;100.00;99263.19;4965040;28;20043;-49
2021/03/11 10:09:38;;;;;;;50.53;26.10;;;;;;;5.34;100.00;99257.13;4964932;28;20724;-45
2021/03/11 10:12:06;;;;;;;54.05;28.33;;;;;;;5.20;100.00;99251.75;4964772;28;20058;-47
2021/03/11 10:14:33;;;;;;;52.17;26.90;;;;;;;5.35;100.00;99247.00;4964682;28;20704;-47
2021/03/11 10:17:02;;;;;;;51.58;28.20;;;;;;;5.54;100.00;99242.34;4965859;28;20125;-47
2021/03/11 10:19:30;;;;;;;49.42;25.58;;;;;;;5.47;100.00;99241.38;4964874;28;20098;-51
2021/03/11 10:22:04;;;;;;;46.13;24.15;;;;;;;5.47;100.00;99245.59;4963528;28;20051;-49
2021/03/11 10:24:41;;;;;;;52.80;26.60;;;;;;;5.57;100.00;99229.75;4960026;28;20449;-50
2021/03/11 10:27:27;;;;;;;52.90;27.90;;;;;;;5.48;100.00;99235.47;4960190;28;20046;-49
2021/03/11 10:30:06;;;;;;;50.90;26.05;;;;;;;5.51;100.00;99233.00;4964684;28;20125;-49
2021/03/11 10:32:35;;;;;;;48.08;25.73;;;;;;;5.66;100.00;99224.00;4962392;28;20038;-49
2021/03/11 10:35:04;;;;;;;53.70;27.73;;;;;;;5.75;100.00;99222.53;4960317;28;20189;-49
2021/03/11 10:37:38;;;;;;;52.65;28.35;;;;;;;5.60;100.00;99223.06;4959838;28;20051;-47
2021/03/11 10:40:11;;;;;;;52.13;27.92;;;;;;;5.61;100.00;99218.81;4958073;28;20054;-52
2021/03/11 10:42:45;;;;;;;47.60;27.33;;;;;;;5.71;100.00;99218.19;4958621;28;20050;-46
2021/03/11 10:45:17;;;;;;;46.65;25.98;;;;;;;5.86;100.00;99222.72;4960568;28;20257;-48
2021/03/11 10:47:57;;;;;;;51.55;26.65;;;;;;;5.81;100.00;99221.78;4965249;28;20054;-48
2021/03/11 10:50:24;;;;;;;47.53;25.45;;;;;;;5.80;100.00;99217.53;4964410;28;20081;-48
2021/03/11 10:52:53;;;;;;;47.20;25.63;;;;;;;5.93;100.00;99196.69;4964797;28;20074;-52
2021/03/11 10:55:36;;;;;;;46.17;24.95;;;;;;;6.07;100.00;99202.88;4964443;28;20050;-50
2021/03/11 10:58:04;;;;;;;41.58;23.38;;;;;;;6.20;100.00;99195.50;4964867;28;20047;-52
2021/03/11 11:00:35;;;;;;;49.30;25.20;;;;;;;6.13;100.00;99190.28;4961061;28;20133;-48
2021/03/11 11:03:05;;;;;;;44.80;24.83;;;;;;;6.29;100.00;99186.38;4957290;28;20061;-51
2021/03/11 11:05:33;;;;;;;42.67;23.85;;;;;;;6.55;100.00;99170.69;4961326;28;20148;-49
2021/03/11 11:08:01;;;;;;;41.83;24.50;;;;;;;6.35;100.00;99168.69;4964432;28;20050;-48
2021/03/11 11:10:33;;;;;;;42.40;24.60;;;;;;;6.91;100.00;99157.75;4964276;28;20049;-46
2021/03/11 11:13:03;;;;;;;40.83;23.30;;;;;;;7.06;100.00;99147.78;4964698;28;20049;-47
2021/03/11 11:15:31;;;;;;;33.08;19.95;;;;;;;8.39;99.05;99143.47;4963007;28;20043;-47
2021/03/11 11:17:58;;;;;;;27.75;17.25;;;;;;;11.21;87.85;99148.00;4965723;28;20123;-45
2021/03/11 11:20:26;;;;;;;22.40;15.35;;;;;;;12.74;77.75;99148.13;4965514;28;20075;-46
2021/03/11 11:22:52;;;;;;;16.63;12.88;;;;;;;15.25;67.76;99144.94;4965802;28;20138;-44
2021/03/11 11:25:19;;;;;;;17.80;13.32;;;;;;;13.67;68.41;99135.25;4963884;28;20098;-49
2021/03/11 11:27:46;;;;;;;20.48;13.35;;;;;;;12.40;72.59;99126.16;4965493;28;20051;-49
2021/03/11 11:30:14;;;;;;;17.92;12.73;;;;;;;11.42;78.49;99127.47;4966186;28;20046;-52
2021/03/11 11:32:42;;;;;;;18.42;13.32;;;;;;;11.91;77.10;99113.59;4962691;28;20038;-46
2021/03/11 11:35:10;;;;;;;19.55;14.05;;;;;;;12.35;76.16;99115.91;4965105;28;20053;-46
2021/03/11 11:37:37;;;;;;;19.70;12.95;;;;;;;12.93;73.25;99094.03;4964920;28;20055;-43